• Join FlightAware (Why Join?)
  • Login
  • US Flag 
09:32AM EDT


 

Airport Tracker/Info


-or-


 

Live Flight TrackerFlight Track Log ✈ UAL3746 ✈ 26-Apr-2013 ✈ KMHT - KORD

Flight Track Log - Related Links

Times and Time Zones

All times are in EDT time to prevent confusion due to time zone crossing. See the UAL3746 flight status page for this flight to view local times or setup timezone preferences in your user account.

Time Position Orientation Groundspeed Altitude Reporting Facility
EDT Latitude Longitude Course Direction KTS MPH feet Rate Location/Type
05:27PM 42.9008 -71.5019 256° West 179 206 4,200  Level Boston Center
05:28PM 42.9536 -71.5719 316° Northwest 195 224 6,900 2,400 Climbing Boston Center
05:29PM 42.9500 -71.9515 270° West  Level FlightAware Approximate
05:29PM 43.0019 -71.6339 317° Northwest 244 281 9,000  Level Boston Center
05:30PM 42.9501 -72.0823 270° West  Level FlightAware Approximate
05:30PM 43.0464 -71.7242 304° West 266 306 11,400  Level Boston Center
05:31PM 42.9500 -72.2130 270° West  Level FlightAware Approximate
05:31PM 43.0678 -71.8147 288° West 266 306 13,000  Level Boston Center
05:32PM 43.0869 -71.9425 282° West 300 345 14,700 1,740 Climbing Boston Center
05:33PM 43.1042 -72.0506 282° West 327 376 16,500 1,680 Climbing Boston Center
05:34PM 43.1253 -72.1897 282° West 339 390 18,100 1,740 Climbing Boston Center
05:35PM 43.1444 -72.3178 282° West 344 396 20,000 1,800 Climbing Boston Center
05:36PM 43.1653 -72.4458 283° West 344 396 21,700 1,500 Climbing Boston Center
05:37PM 43.1694 -72.5853 272° West 357 411 23,000 1,260 Climbing Boston Center
05:38PM 43.1669 -72.7247 269° West 367 422 24,300 1,200 Climbing Boston Center
05:39PM 43.1667 -72.8669 270° West 367 422 25,500 1,200 Climbing Boston Center
05:40PM 43.1681 -73.0122 271° West 377 434 26,700 1,200 Climbing Boston Center
05:41PM 43.1692 -73.1603 271° West 387 445 28,000 1,080 Climbing Boston Center
05:42PM 43.1725 -73.3083 272° West 387 445 28,900 840 Climbing Boston Center
05:43PM 43.1692 -73.4392 268° West 387 445 29,700 840 Climbing Boston Center
05:44PM 43.1719 -73.5903 271° West 392 451 30,600 780 Climbing Boston Center
05:45PM 43.1722 -73.7639 270° West 397 457 31,300 840 Climbing Boston Center
05:46PM 43.1725 -73.9175 270° West 408 470 32,300 1,080 Climbing Boston Center
05:47PM 43.1744 -74.0658 271° West 401 461 33,500 840 Climbing Boston Center
05:48PM 43.1744 -74.2108 270° West 401 461 34,000 240 Climbing Boston Center
05:49PM 43.1742 -74.3647 270° West 401 461 34,000  Level Boston Center
05:50PM 43.1733 -74.5211 270° West 401 461 34,000  Level Boston Center
05:51PM 43.1744 -74.6778 271° West 401 461 34,000  Level Boston Center
05:52PM 43.1733 -74.8372 270° West 407 468 34,000  Level Boston Center
05:53PM 43.1722 -74.9939 269° West 412 474 34,000  Level Boston Center
05:54PM 43.1706 -75.1533 269° West 417 480 34,000  Level Boston Center
05:55PM 43.1692 -75.2956 269° West 422 486 34,000  Level Boston Center
05:56PM 43.1692 -75.4550 270° West 422 486 34,000  Level Boston Center
05:57PM 43.1692 -75.6117 270° West 416 479 34,000  Level Boston Center
05:58PM 43.1686 -75.7711 270° West 421 484 34,000  Level Boston Center
05:59PM 43.1661 -75.9275 269° West 421 484 34,000  Level Boston Center
06:00PM 43.1594 -76.2139 268° West 424 488 34,000  Level Cleveland Center
06:01PM 43.1611 -76.3761 271° West 424 488 34,000  Level Cleveland Center
06:02PM 43.1606 -76.5328 270° West 424 488 34,000  Level Cleveland Center
06:03PM 43.1597 -76.6922 270° West 424 488 34,000  Level Cleveland Center
06:04PM 43.1586 -76.8461 269° West 424 488 34,100 480 Climbing Cleveland Center
06:05PM 43.1611 -76.9911 271° West 424 488 35,000 720 Climbing Cleveland Center
06:06PM 43.1594 -77.1422 269° West 419 482 35,600 480 Climbing Cleveland Center
06:07PM 43.1597 -77.2958 270° West 414 476 36,000 180 Climbing Cleveland Center
06:08PM 43.1597 -77.4525 270° West 414 476 36,000  Level Cleveland Center
06:09PM 43.1600 -77.6119 270° West 419 482 36,000  Level Cleveland Center
06:10PM 43.1575 -77.7714 269° West 419 482 36,000  Level Cleveland Center
06:11PM 43.1572 -77.9308 270° West 424 488 36,000  Level Cleveland Center
06:12PM 43.1544 -78.0903 269° West 424 488 36,000  Level Cleveland Center
06:13PM 43.1536 -78.2469 270° West 424 488 36,000  Level Cleveland Center
06:14PM 43.1525 -78.4064 270° West 424 488 36,000  Level Cleveland Center
06:15PM 43.1492 -78.5686 268° West 424 488 36,000  Level Cleveland Center
06:16PM 43.1497 -78.7278 270° West 424 488 36,000  Level Cleveland Center
06:17PM 43.1461 -78.8875 268° West 424 488 36,000  Level Cleveland Center
06:18PM 43.1333 -79.0167 262° West 420 483 36,000  Level Toronto Center
06:19PM 43.1333 -79.1833 270° West 420 483 36,000  Level Toronto Center
06:20PM 43.1333 -79.3333 270° West 420 483 36,000  Level Toronto Center
06:21PM 43.1167 -79.5000 262° West 420 483 36,000  Level Toronto Center
06:22PM 43.1167 -79.6500 270° West 420 483 36,000  Level Toronto Center
06:23PM 43.1167 -79.8167 270° West 410 472 36,000  Level Toronto Center
06:24PM 43.1167 -79.9500 270° West 410 472 36,000  Level Toronto Center
06:25PM 43.1167 -80.1167 270° West 410 472 36,000  Level Toronto Center
06:26PM 43.1000 -80.2667 261° West 410 472 36,000  Level Toronto Center
06:27PM 43.1000 -80.4333 270° West 400 460 36,000  Level Toronto Center
06:28PM 43.1000 -80.5667 270° West 400 460 36,000  Level Toronto Center
06:29PM 43.1000 -80.7333 270° West 400 460 36,000  Level Toronto Center
06:30PM 43.0833 -80.8833 261° West 400 460 36,000  Level Toronto Center
06:31PM 43.0667 -81.0333 261° West 410 472 36,000  Level Toronto Center
06:32PM 43.0667 -81.1833 270° West 410 472 36,000  Level Toronto Center
06:33PM 43.0667 -81.3500 270° West 410 472 36,000  Level Toronto Center
06:34PM 43.0667 -81.5000 270° West 410 472 36,000  Level Toronto Center
06:35PM 43.0667 -81.6667 270° West 410 472 36,000  Level Toronto Center
06:36PM 43.0500 -81.8167 261° West 410 472 36,000  Level Toronto Center
06:37PM 43.0500 -81.9667 270° West 410 472 36,000  Level Toronto Center
06:38PM 43.0667 -82.1167 279° West 410 472 36,000 -480 Level Toronto Center
06:39PM 43.0833 -82.2833 278° West 410 472 35,100 -960 Descending Toronto Center
06:40PM 43.1000 -82.4167 280° West 410 472 34,100 -1,080 Descending Toronto Center
06:41PM 43.1167 -82.5833 278° West 400 460 33,000 -1,020 Descending Toronto Center
06:42PM 43.1344 -82.7197 280° West 399 459 32,100 -540 Descending Cleveland Center
06:43PM 43.1317 -82.8675 269° West 393 452 32,000 -60 Descending Cleveland Center
06:44PM 43.1097 -83.0175 259° West 393 452 32,000  Level Cleveland Center
06:45PM 43.0897 -83.1731 260° West 406 467 32,000  Level Cleveland Center
06:46PM 43.0672 -83.3342 259° West 427 491 32,000  Level Cleveland Center
06:47PM 43.0447 -83.4922 259° West 427 491 32,000  Level Cleveland Center
06:48PM 43.0219 -83.6475 259° West 427 491 32,000  Level Cleveland Center
06:49PM 42.9989 -83.8053 259° West 427 491 32,000  Level Cleveland Center
06:50PM 42.9778 -83.9603 260° West 427 491 32,000  Level Cleveland Center
06:51PM 42.9544 -84.1122 258° West 427 491 32,000  Level Cleveland Center
06:52PM 42.9308 -84.2669 258° West 427 491 32,000  Level Cleveland Center
06:53PM 42.9022 -84.4353 257° West 427 491 32,000  Level Cleveland Center
06:54PM 42.8983 -84.4894 264° West 417 480 32,000  Level Chicago Center
06:55PM 42.8775 -84.6439 260° West 416 479 32,000  Level Chicago Center
06:56PM 42.8617 -84.8000 262° West 416 479 32,000  Level Chicago Center
06:57PM 42.8453 -84.9544 262° West 413 475 32,000  Level Chicago Center
06:58PM 42.8289 -85.1089 262° West 413 475 32,000 -300 Level Chicago Center
06:59PM 42.8122 -85.2642 262° West 413 475 31,400 -1,380 Descending Chicago Center
07:00PM 42.7911 -85.4525 261° West 418 481 29,200 -2,040 Descending Chicago Center
07:01PM 42.7667 -85.6072 258° West 417 480 27,200 -1,980 Descending Chicago Center
07:02PM 42.7394 -85.7594 256° West 412 474 25,200 -1,860 Descending Chicago Center
07:03PM 42.7117 -85.9119 256° West 412 474 23,400 -1,800 Descending Chicago Center
07:04PM 42.6839 -86.0664 256° West 416 479 21,600 -1,680 Descending Chicago Center
07:05PM 42.6561 -86.2169 256° West 411 473 20,000 -780 Descending Chicago Center
07:06PM 42.6286 -86.3592 255° West 393 452 20,000 -1,140 Level Chicago Center
07:07PM 42.5969 -86.5292 256° West 387 445 17,700 -2,040 Descending Chicago Center
07:08PM 42.5708 -86.6692 256° West 383 441 15,900 -1,800 Descending Chicago Center
07:09PM 42.5414 -86.8028 253° West 373 429 14,000 -1,920 Descending Chicago Center
07:10PM 42.5056 -86.9322 249° West 367 422 12,000 -1,920 Descending Chicago Center
07:11PM 42.4736 -87.0522 250° West 343 395 10,100 -1,080 Descending Chicago Center
07:12PM 42.4467 -87.1464 249° West 273 314 9,800 -540 Descending Chicago Center
07:13PM 42.4158 -87.2481 248° West 246 283 9,000 -420 Descending Chicago Center
07:14PM 42.3819 -87.3317 241° Southwest 251 289 9,000  Level Chicago Center
07:15PM 42.3517 -87.4050 241° Southwest 250 288 9,000 -540 Level Chicago Center
07:16PM 42.3119 -87.5031 241° Southwest 249 287 7,900 -1,020 Descending Chicago Center
07:17PM 42.2789 -87.5814 240° Southwest 243 280 7,000 -480 Descending Chicago Center
07:18PM 42.2311 -87.6378 221° Southwest 230 265 7,000 -540 Level Chicago Center
07:19PM 42.1889 -87.6836 219° Southwest 202 232 5,900 -1,200 Descending Chicago Center
07:21PM 42.1467 -87.7336 221° Southwest 202 232 4,600 -1,260 Descending Chicago Center
07:22PM 42.0969 -87.7872 219° Southwest 195 224 3,300 -1,260 Descending Chicago Center